x

Tanner Bank - 121nm West Of San Diego, Ca (46047) Weather Station

3:50am - Tue 28th Jul 2015 All times are PDT. -7 hours from GMT.

  • Wind
    16mph, 20mph gusts
  • Sea Temp 68°f
  • Air Temp 64°f
  • Sea Pressure 1012.4mb
  • Tanner Bank - 121nm West Of San Diego, Ca
  • Tanner Bank - 121nm West Of San Diego, Ca

More Historic Weather Station data

Upgrade to MSW Pro to gain access to the past 30 days of data for over 8000 Wavebouys and Weather Stations around the globe.

Join Pro

Comparision Forecast

View Surf forecast
   
Tue 07/28 3:50am  -   -   -  16 20 mph 1012.4mb 68f 64f
2:50am 7ft 10s 6s 18 22 mph 1012.4mb 68f 65f
1:50am 7.5ft 11s 6s 18 22 mph 1012.6mb 68f 64f
12:50am 7ft 9s 6s 16 22 mph 1013mb 68f 65f
Mon 07/27 11:50pm 8ft 9s 6s 18 22 mph 1013.2mb 68f 64f
10:50pm 7ft 9s 6s 18 22 mph 1013.5mb 68f 65f
9:50pm 7ft 9s 6s 20 27 mph 1013.2mb 68f 65f
8:50pm 7ft 17s 6s 20 25 mph 1012.9mb 68f 65f
7:50pm 7ft 16s 6s 18 25 mph 1012.7mb 68f 64f
6:50pm 6.5ft 8s 7s 18 22 mph 1012.6mb 68f 65f
5:50pm 6ft 11s 6s 18 25 mph 1012.4mb 68f 65f
4:50pm 6.5ft 8s 7s 18 25 mph 1012.6mb 68f 65f
3:50pm 6ft 8s 6s 16 20 mph 1013mb 68f 65f
2:50pm 6ft 8s 6s 13 18 mph 1013.6mb 68f 65f
1:50pm 6ft 12s 6s 16 20 mph 1013.9mb 68f 65f
12:50pm 7ft 8s 6s 16 20 mph 1014.2mb 68f 65f
11:50am 6.5ft 9s 6s 13 18 mph 1014.6mb 68f 65f
10:50am 7ft 8s 6s 13 18 mph 1014.5mb 68f 65f
9:50am 6.5ft 8s 6s 18 20 mph 1014.4mb 68f 65f
8:50am  -   -   -  16 20 mph 1014.3mb 68f 65f
7:50am 6ft 7s 6s 18 22 mph 1013.8mb 68f 65f
6:50am 6ft 7s 6s 18 22 mph 1013.7mb 68f 65f
5:50am 6ft 7s 6s 18 25 mph 1013mb 68f 66f
4:50am  -   -   -  18 25 mph 1013mb 68f 66f
3:50am  -   -   -  18 22 mph 1013.1mb 68f 65f
2:50am 6ft 7s 6s 18 25 mph 1013.2mb 68f 65f
1:50am 6ft 7s 5s 18 22 mph 1013.5mb 68f 65f
12:50am 6ft 6s 6s 20 25 mph 1013.9mb 68f 65f
Sun 07/26 11:50pm 6ft 6s 5s 20 25 mph 1014.2mb 68f 65f
10:50pm 6.5ft 6s 6s 20 25 mph 1014.4mb 68f 65f
9:50pm 6ft 7s 6s 20 25 mph 1013.9mb 68f 65f
8:50pm  -   -   -  18 22 mph 1013.8mb 68f 65f
7:50pm 6ft 6s 5s 20 25 mph 1013.8mb 68f 65f
6:50pm 5.5ft 6s 5s 20 22 mph 1013.6mb 68f 65f
5:50pm 5.5ft 15s 6s 18 22 mph 1013.9mb 68f 66f
4:50pm 6ft 7s 6s 18 22 mph 1014.2mb 68f 66f
3:50pm 6ft 14s 6s 18 22 mph 1014.4mb 68f 66f
2:50pm 6ft 7s 6s 18 22 mph 1014.8mb 68f 66f
1:50pm 6.5ft 7s 6s 18 22 mph 1015.3mb 68f 65f
12:50pm 6.5ft 7s 6s 18 20 mph 1015.9mb 68f 65f
11:50am 7ft 8s 6s 16 20 mph 1016.1mb 68f 66f
10:50am  -   -   -  16 22 mph 1016.2mb 68f 65f
9:50am 7ft 7s 6s 16 20 mph 1015.6mb 68f 65f
8:50am  -   -   -  18 22 mph 1015.4mb 68f 64f
7:50am 7ft 8s 6s 20 25 mph 1014.9mb 68f 64f
6:50am  -   -   -  20 27 mph 1014.3mb 68f 64f
5:50am 7ft 7s 6s 22 27 mph 1013.5mb 68f 64f
4:50am 7ft 7s 6s 20 25 mph 1013.5mb 68f 64f
3:50am 7ft 7s 6s 22 27 mph 1013.5mb 68f 64f
2:50am 7ft 7s 6s 20 25 mph 1013.8mb 68f 64f
1:50am 6ft 7s 6s 20 25 mph 1013.9mb 68f 65f
12:50am 6.5ft 7s 6s 20 25 mph 1014.2mb 68f 66f
Sat 07/25 11:50pm 6ft 7s 6s 20 25 mph 1014.5mb 68f 67f
10:50pm 6ft 6s 5s 22 27 mph 1014.3mb 68f 67f
9:50pm 6ft 5s 5s 20 25 mph 1014.3mb 69f 67f
8:50pm 6ft 6s 6s 20 27 mph 1013.9mb 69f 67f
7:50pm 6ft 7s 6s 20 22 mph 1013.8mb 69f 67f
6:50pm 6ft 16s 6s 20 22 mph 1013.9mb 69f 68f
5:50pm  -   -   -  18 22 mph 1014.3mb 69f 68f
4:50pm 5ft 7s 6s 18 22 mph 1014.7mb 69f 67f
3:50pm 5ft 14s 5s 18 22 mph 1015.2mb 69f 67f
2:50pm 5ft 7s 5s 18 22 mph 1015.7mb 69f 67f
1:50pm 5ft 16s 6s 18 22 mph 1016.3mb 69f 67f
12:50pm 5ft 6s 6s 16 20 mph 1016.9mb 69f 67f
11:50am 5ft 17s 6s 16 20 mph 1017.2mb 69f 67f
10:50am 5ft 13s 6s 16 18 mph 1017.5mb 69f 67f
9:50am 5ft 16s 6s 18 20 mph 1017.2mb 68f 67f
8:50am 5ft 6s 6s 13 18 mph 1017.3mb 68f 67f
7:50am 5ft 14s 6s 13 16 mph 1017mb 68f 67f
6:50am 5ft 6s 6s 13 16 mph 1016.7mb 69f 67f
5:50am 5ft 14s 6s 13 18 mph 1016.4mb 69f 67f
4:50am 4.5ft 7s 6s 13 16 mph 1016.1mb 69f 67f
3:50am 4.5ft 14s 6s 13 16 mph 1016.3mb 69f 67f
2:50am 4.5ft 15s 6s 13 16 mph 1016.5mb 69f 67f
1:50am 4.5ft 16s 6s 13 16 mph 1017mb 69f 67f
12:50am 4.5ft 15s 5s 16 18 mph 1017mb 69f 67f
Fri 07/24 11:50pm 4.5ft 14s 5s 16 20 mph 1017.2mb 69f 67f
10:50pm 5ft 14s 6s 18 20 mph 1017.1mb 69f 66f
9:50pm 4.5ft 14s 6s 16 18 mph 1017.1mb 69f 66f
8:50pm 4.5ft 14s 6s 16 18 mph 1016.7mb 69f 66f
7:50pm 4.5ft 16s 6s 13 16 mph 1016.6mb 69f 66f
6:50pm 4.5ft 14s 6s 16 18 mph 1016.5mb 69f 67f
5:50pm 4ft 8s 6s 13 16 mph 1016.5mb 69f 67f
4:50pm 4.5ft 14s 6s 13 16 mph 1016.9mb 69f 67f
3:50pm 4.5ft 14s 6s 11 13 mph 1017.3mb 69f 67f
2:50pm 4.5ft 14s 6s 11 13 mph 1017.8mb 69f 66f
1:50pm 4ft 9s 6s 11 13 mph 1018.1mb 69f 66f
12:50pm 4ft 8s 6s 11 13 mph 1018.5mb 69f 66f
11:50am 4.5ft 15s 7s 9 11 mph 1018.6mb 69f 66f